This is the latest recevied weather packets stored in our database for station/object NT9G. If no packets are shown the sender has not sent any weather packets the latest 10 day(s).
| Time | Temp. | Humidity | Pressure | Rain* | Wind** | Luminosity | Snow |
|---|---|---|---|---|---|---|---|
| 1777854796 | 19.44° C | 42% | 1008 hPa | 0 mm | - | - | - |
| 1777854496 | 19.44° C | 42% | 1008 hPa | 0 mm | - | - | - |
| 1777853896 | 20° C | 41% | 1007.9 hPa | 0 mm | - | - | - |
| 1777853595 | 20° C | 40% | 1007.9 hPa | 0 mm | - | - | - |
| 1777853295 | 20° C | 40% | 1008 hPa | 0 mm | - | - | - |
| 1777852995 | 20.56° C | 39% | 1008 hPa | 0 mm | - | - | - |
| 1777852694 | 20.56° C | 39% | 1008.1 hPa | 0 mm | - | - | - |
| 1777852094 | 20.56° C | 38% | 1008 hPa | 0 mm | - | - | - |
| 1777834978 | 21.67° C | 29% | 1010.3 hPa | 0 mm | - | - | - |
| 1777834677 | 21.67° C | 30% | 1010.3 hPa | 0 mm | - | - | - |
| 1777833776 | 21.67° C | 30% | 1010.6 hPa | 0 mm | - | - | - |
| 1777833176 | 21.11° C | 31% | 1010.8 hPa | 0 mm | - | - | - |
| 1777832876 | 21.11° C | 33% | 1010.9 hPa | 0 mm | - | - | - |
| 1777832575 | 20.56° C | 32% | 1011 hPa | 0 mm | - | - | - |
| 1777832275 | 20.56° C | 31% | 1011.2 hPa | 0 mm | - | - | - |
| 1777831074 | 19.44° C | 34% | 1011.6 hPa | 0 mm | - | - | - |
| 1777830774 | 19.44° C | 35% | 1011.7 hPa | 0 mm | - | - | - |
| 1777829873 | 18.33° C | 38% | 1012.2 hPa | 0 mm | - | - | - |
| 1777829572 | 18.33° C | 39% | 1012.2 hPa | 0 mm | - | - | - |
| 1777829272 | 17.78° C | 38% | 1012.4 hPa | 0 mm | - | - | - |
| 1777828972 | 17.78° C | 40% | 1012.8 hPa | 0 mm | - | - | - |
| 1777828672 | 17.22° C | 41% | 1013.3 hPa | 0 mm | - | - | - |
| 1777828371 | 17.22° C | 43% | 1013.4 hPa | 0 mm | - | - | - |
| 1777828071 | 16.67° C | 41% | 1013.5 hPa | 0 mm | - | - | - |
| 1777827771 | 16.67° C | 43% | 1013.8 hPa | 0 mm | - | - | - |
* Rain since midnight (hover to see other rain measurements)
** Current wind speed in m/s (hover to see current wind gust speed)